Time;durP1;ratioP1;P1;durP2;ratioP2;P2;SDS_P1;SDS_P2;PMS_P1;PMS_P2;Temp;Humidity;BMP_temperature;BMP_pressure;BME280_temperature;BME280_humidity;BME280_pressure;Samples;Min_cycle;Max_cycle;Signal;HPM_P1;HPM_P2
2023/04/01 00:01:14;;;;;;;0.98;0.98;;;10.90;99.90;;;;;;5113874;28;20269;-81
2023/04/01 00:03:43;;;;;;;0.70;0.70;;;10.90;99.90;;;;;;5114136;28;20204;-81
2023/04/01 00:06:16;;;;;;;1.80;0.70;;;10.90;99.90;;;;;;5114583;28;20196;-81
2023/04/01 00:08:45;;;;;;;2.08;0.90;;;10.90;99.90;;;;;;5113432;28;20329;-81
2023/04/01 00:11:14;;;;;;;0.82;0.82;;;10.90;99.90;;;;;;5113490;28;20264;-81
2023/04/01 00:13:43;;;;;;;1.05;1.00;;;10.90;99.90;;;;;;5113017;28;20207;-81
2023/04/01 00:16:12;;;;;;;0.88;0.65;;;10.80;99.90;;;;;;5113862;28;20204;-81
2023/04/01 00:18:49;;;;;;;1.42;0.95;;;10.90;99.90;;;;;;5113486;28;20224;-81
2023/04/01 00:21:21;;;;;;;0.68;0.50;;;10.90;99.90;;;;;;5113597;28;20227;-81
2023/04/01 00:23:50;;;;;;;0.52;0.52;;;10.90;99.90;;;;;;5113844;28;20203;-81
2023/04/01 00:26:20;;;;;;;1.33;1.08;;;10.80;99.90;;;;;;5113588;28;20280;-81
2023/04/01 00:28:50;;;;;;;1.30;0.93;;;10.80;99.90;;;;;;5112692;28;20249;-81
2023/04/01 00:31:19;;;;;;;0.98;0.93;;;10.80;99.90;;;;;;5113506;28;20243;-80
2023/04/01 00:33:48;;;;;;;1.10;1.00;;;10.80;99.90;;;;;;5113661;28;20201;-81
2023/04/01 00:36:18;;;;;;;1.50;1.08;;;10.80;99.90;;;;;;5113854;28;20242;-80
2023/04/01 00:38:48;;;;;;;1.25;0.90;;;10.70;99.90;;;;;;5113503;28;20211;-80
2023/04/01 00:41:17;;;;;;;1.38;1.10;;;10.70;99.90;;;;;;5113283;28;20224;-80
2023/04/01 00:43:51;;;;;;;0.98;0.75;;;10.70;99.90;;;;;;5113535;28;20199;-80
2023/04/01 00:46:20;;;;;;;1.08;0.98;;;10.70;99.90;;;;;;5113514;28;20274;-80
2023/04/01 00:48:51;;;;;;;1.83;1.33;;;10.70;99.90;;;;;;5112166;28;20244;-81
2023/04/01 00:51:22;;;;;;;1.02;0.93;;;10.70;99.90;;;;;;5112745;28;20237;-81
2023/04/01 00:53:54;;;;;;;0.90;0.60;;;10.70;99.90;;;;;;5113268;28;20237;-80
2023/04/01 00:56:26;;;;;;;0.52;0.52;;;10.70;99.90;;;;;;5113059;28;20234;-80
2023/04/01 00:58:59;;;;;;;0.70;0.70;;;10.70;99.90;;;;;;5113001;28;20199;-81
2023/04/01 01:01:30;;;;;;;1.70;1.60;;;10.70;99.90;;;;;;5113289;28;20284;-81
2023/04/01 01:03:59;;;;;;;1.13;1.05;;;10.70;99.90;;;;;;5113458;28;20265;-81
2023/04/01 01:06:38;;;;;;;1.98;1.02;;;10.70;99.90;;;;;;5113233;28;20204;-81
2023/04/01 01:09:27;;;;;;;1.02;0.73;;;10.70;99.90;;;;;;5112874;28;20211;-81
2023/04/01 01:12:06;;;;;;;0.77;0.77;;;10.70;99.90;;;;;;5113085;28;20318;-81
2023/04/01 01:14:59;;;;;;;0.90;0.90;;;10.70;99.90;;;;;;5113029;28;20242;-80
2023/04/01 01:17:38;;;;;;;1.27;1.17;;;10.70;99.90;;;;;;5112342;28;20298;-81
2023/04/01 01:20:53;;;;;;;0.80;0.80;;;10.70;99.90;;;;;;5113315;28;20206;-81
2023/04/01 01:23:34;;;;;;;1.13;1.00;;;10.60;99.90;;;;;;5050766;28;20300;-81
2023/04/01 01:26:26;;;;;;;1.55;1.00;;;10.60;99.90;;;;;;5050155;28;20206;-80
2023/04/01 01:29:02;;;;;;;0.88;0.82;;;10.60;99.90;;;;;;5093333;28;20203;-81
2023/04/01 01:31:38;;;;;;;1.33;0.80;;;10.60;99.90;;;;;;5112352;28;20219;-81
2023/04/01 01:34:17;;;;;;;1.08;0.80;;;10.60;99.90;;;;;;5112866;28;20207;-81
2023/04/01 01:36:52;;;;;;;1.35;0.80;;;10.60;99.90;;;;;;5112634;28;20231;-81
2023/04/01 01:39:26;;;;;;;1.65;1.20;;;10.60;99.90;;;;;;5112900;28;20223;-81
2023/04/01 01:41:57;;;;;;;1.10;1.00;;;10.60;99.90;;;;;;5112606;28;20310;-81
2023/04/01 01:44:27;;;;;;;1.08;0.80;;;10.60;99.90;;;;;;5112946;28;20252;-81
2023/04/01 01:46:57;;;;;;;0.70;0.63;;;10.60;99.90;;;;;;5112150;28;20212;-81
2023/04/01 01:49:30;;;;;;;0.90;0.90;;;10.60;99.90;;;;;;5112398;28;20200;-81
2023/04/01 01:51:59;;;;;;;0.98;0.88;;;10.60;99.90;;;;;;5112399;28;20314;-81
2023/04/01 01:54:28;;;;;;;0.82;0.82;;;10.60;99.90;;;;;;5112667;28;20295;-81
2023/04/01 01:57:04;;;;;;;1.27;0.80;;;10.50;99.90;;;;;;5112260;28;20291;-81
2023/04/01 01:59:35;;;;;;;0.70;0.70;;;10.50;99.90;;;;;;5112639;28;20207;-81
2023/04/01 02:02:07;;;;;;;1.58;0.88;;;10.40;99.90;;;;;;5112714;28;20279;-81
2023/04/01 02:04:39;;;;;;;1.63;0.80;;;10.50;99.90;;;;;;5116017;28;20215;-81
2023/04/01 02:07:13;;;;;;;0.60;0.60;;;10.40;99.90;;;;;;5115788;28;20212;-81
2023/04/01 02:09:43;;;;;;;5.75;1.20;;;10.40;99.90;;;;;;5116220;28;20247;-81
2023/04/01 02:12:15;;;;;;;0.93;0.90;;;10.40;99.90;;;;;;5116387;28;20219;-81
2023/04/01 02:14:47;;;;;;;1.10;1.00;;;10.40;99.90;;;;;;5116703;28;20250;-81
2023/04/01 02:17:18;;;;;;;0.60;0.60;;;10.40;99.90;;;;;;5115981;28;20246;-81
2023/04/01 02:19:51;;;;;;;2.28;1.25;;;10.40;99.90;;;;;;5116073;28;20216;-81
2023/04/01 02:22:24;;;;;;;1.58;0.98;;;10.30;99.90;;;;;;5116032;28;20219;-81
2023/04/01 02:24:58;;;;;;;4.90;1.15;;;10.30;99.90;;;;;;5116039;28;20203;-81
2023/04/01 02:27:27;;;;;;;1.77;1.13;;;10.30;99.90;;;;;;5115399;28;20303;-81
2023/04/01 02:29:56;;;;;;;3.75;0.93;;;10.30;99.90;;;;;;5116040;28;20212;-81
2023/04/01 02:32:24;;;;;;;1.20;1.10;;;10.30;99.90;;;;;;5115420;28;20264;-81
2023/04/01 02:34:53;;;;;;;0.95;0.95;;;10.30;99.90;;;;;;5115659;28;20200;-82
2023/04/01 02:37:24;;;;;;;0.90;0.85;;;10.20;99.90;;;;;;5115289;28;20257;-81
2023/04/01 02:39:52;;;;;;;4.35;1.33;;;10.30;99.90;;;;;;5116228;28;20204;-81
2023/04/01 02:42:20;;;;;;;0.95;0.93;;;10.20;99.90;;;;;;5115769;28;20219;-81
2023/04/01 02:44:48;;;;;;;1.88;1.02;;;10.20;99.90;;;;;;5116097;28;20238;-82
2023/04/01 02:47:17;;;;;;;0.60;0.60;;;10.20;99.90;;;;;;5114925;28;20290;-81
2023/04/01 02:49:45;;;;;;;1.45;1.10;;;10.20;99.90;;;;;;5115112;28;20242;-81
2023/04/01 02:52:13;;;;;;;0.77;0.73;;;10.10;99.90;;;;;;5115458;28;20224;-81
2023/04/01 02:54:43;;;;;;;1.20;1.10;;;10.20;99.90;;;;;;5115224;28;20206;-81
2023/04/01 02:57:11;;;;;;;2.25;1.38;;;10.20;99.90;;;;;;5114687;28;20235;-81
2023/04/01 02:59:39;;;;;;;1.17;1.08;;;10.10;99.90;;;;;;5114893;28;20227;-81
2023/04/01 03:02:08;;;;;;;1.60;1.20;;;10.10;99.90;;;;;;5114844;28;20284;-82
2023/04/01 03:04:36;;;;;;;1.65;1.00;;;10.00;99.90;;;;;;5115496;28;20200;-82
2023/04/01 03:07:05;;;;;;;1.38;0.90;;;9.90;99.90;;;;;;5114883;28;20242;-82
2023/04/01 03:09:34;;;;;;;2.20;1.08;;;9.80;99.90;;;;;;5115429;28;20215;-82
2023/04/01 03:12:04;;;;;;;0.88;0.75;;;9.80;99.90;;;;;;5114610;28;20322;-82
2023/04/01 03:14:32;;;;;;;0.98;0.73;;;9.80;99.90;;;;;;5114719;28;20200;-81
2023/04/01 03:17:00;;;;;;;1.25;1.15;;;9.80;99.90;;;;;;5114637;28;20210;-81
2023/04/01 03:19:29;;;;;;;1.02;0.90;;;9.80;99.90;;;;;;5114714;28;20199;-81
2023/04/01 03:21:57;;;;;;;1.00;1.00;;;9.80;99.90;;;;;;5114924;28;20315;-81
2023/04/01 03:24:25;;;;;;;1.58;1.48;;;9.80;99.90;;;;;;5114933;28;20294;-81
2023/04/01 03:26:54;;;;;;;1.48;1.17;;;9.80;99.90;;;;;;5114567;28;20215;-80
2023/04/01 03:29:24;;;;;;;1.90;0.90;;;9.80;99.90;;;;;;5114680;28;20286;-80
2023/04/01 03:31:52;;;;;;;1.98;1.10;;;9.80;99.90;;;;;;5114858;28;20227;-80
2023/04/01 03:34:23;;;;;;;0.60;0.60;;;9.80;99.90;;;;;;5114617;28;20208;-80
2023/04/01 03:36:52;;;;;;;1.25;0.95;;;9.70;99.90;;;;;;5113910;28;20291;-80
2023/04/01 03:39:21;;;;;;;2.35;1.55;;;9.70;99.90;;;;;;5114588;28;20227;-80
2023/04/01 03:41:50;;;;;;;1.70;1.30;;;9.70;99.90;;;;;;5114441;28;20220;-82
2023/04/01 03:44:18;;;;;;;1.35;0.80;;;9.70;99.90;;;;;;5114604;28;20290;-82
2023/04/01 03:46:51;;;;;;;1.60;0.93;;;9.70;99.90;;;;;;5114051;28;20246;-81
2023/04/01 03:49:19;;;;;;;2.88;1.25;;;9.70;99.90;;;;;;5114335;28;20217;-81
2023/04/01 03:51:48;;;;;;;0.73;0.73;;;9.70;99.90;;;;;;5114272;28;20311;-81
2023/04/01 03:54:16;;;;;;;1.42;1.33;;;9.70;99.90;;;;;;5114493;28;20208;-82
2023/04/01 03:56:45;;;;;;;10.25;1.40;;;9.70;99.90;;;;;;5113843;28;20229;-82
2023/04/01 03:59:13;;;;;;;1.30;1.02;;;9.60;99.90;;;;;;5113972;28;20207;-82
2023/04/01 04:01:42;;;;;;;2.38;1.20;;;9.70;99.90;;;;;;5114370;28;20219;-82
2023/04/01 04:04:14;;;;;;;0.88;0.77;;;9.70;99.90;;;;;;5114358;28;20299;-82
2023/04/01 04:06:42;;;;;;;0.85;0.85;;;9.60;99.90;;;;;;5113660;28;20219;-82
2023/04/01 04:09:11;;;;;;;1.10;0.98;;;9.60;99.90;;;;;;5113945;28;20204;-82
2023/04/01 04:11:39;;;;;;;0.70;0.70;;;9.70;99.90;;;;;;5113882;28;20223;-82
2023/04/01 04:14:07;;;;;;;0.80;0.73;;;9.70;99.90;;;;;;5113766;28;20228;-82
2023/04/01 04:16:39;;;;;;;1.90;1.27;;;9.70;99.90;;;;;;5113906;28;20239;-82
2023/04/01 04:19:10;;;;;;;2.90;0.80;;;9.70;99.90;;;;;;5113738;28;20246;-82
2023/04/01 04:21:40;;;;;;;0.70;0.70;;;9.70;99.90;;;;;;5113815;28;20227;-82
2023/04/01 04:24:10;;;;;;;0.77;0.63;;;9.80;99.90;;;;;;5113567;28;20272;-81
2023/04/01 04:26:38;;;;;;;1.13;1.08;;;9.80;99.90;;;;;;5112781;28;20247;-82
2023/04/01 04:29:06;;;;;;;1.83;1.00;;;9.80;99.90;;;;;;5113480;28;20230;-81
2023/04/01 04:31:35;;;;;;;1.25;1.10;;;9.80;99.90;;;;;;5113551;28;20220;-81
2023/04/01 04:34:03;;;;;;;0.82;0.80;;;9.80;99.90;;;;;;5113217;28;20279;-82
2023/04/01 04:36:32;;;;;;;0.98;0.98;;;9.80;99.90;;;;;;5113438;28;20208;-81
2023/04/01 04:39:03;;;;;;;0.75;0.75;;;9.90;99.90;;;;;;5112693;28;20207;-81
2023/04/01 04:41:31;;;;;;;1.02;0.88;;;9.90;99.90;;;;;;5113388;28;20276;-81
2023/04/01 04:43:59;;;;;;;0.60;0.60;;;9.90;99.90;;;;;;5113863;28;20196;-81
2023/04/01 04:46:30;;;;;;;1.38;0.93;;;9.90;99.90;;;;;;5113504;28;20211;-81
2023/04/01 04:48:58;;;;;;;1.40;1.30;;;9.90;99.90;;;;;;5112756;28;20214;-81
2023/04/01 04:51:27;;;;;;;1.00;1.00;;;9.90;99.90;;;;;;5113284;28;20227;-81
2023/04/01 04:53:55;;;;;;;1.02;0.75;;;9.90;99.90;;;;;;5113092;28;20220;-81
2023/04/01 04:56:25;;;;;;;0.90;0.80;;;9.90;99.90;;;;;;5113425;28;20287;-82
2023/04/01 04:58:54;;;;;;;1.17;1.00;;;9.90;99.90;;;;;;5112917;28;20320;-82
2023/04/01 05:01:25;;;;;;;0.45;0.45;;;9.80;99.90;;;;;;5112832;28;20306;-82
2023/04/01 05:03:54;;;;;;;0.73;0.63;;;9.80;99.90;;;;;;5113134;28;20211;-81
2023/04/01 05:06:23;;;;;;;1.42;0.90;;;9.80;99.90;;;;;;5113114;28;20267;-81
2023/04/01 05:08:51;;;;;;;3.17;1.13;;;9.80;99.90;;;;;;5112525;28;20215;-82
2023/04/01 05:11:20;;;;;;;0.85;0.82;;;9.80;99.90;;;;;;5113345;28;20344;-81
2023/04/01 05:13:51;;;;;;;0.70;0.70;;;9.80;99.90;;;;;;5112806;28;20261;-81
2023/04/01 05:16:21;;;;;;;1.05;0.95;;;9.80;99.90;;;;;;5112867;28;20242;-81
2023/04/01 05:18:50;;;;;;;0.75;0.75;;;9.80;99.90;;;;;;5112401;28;20260;-81
2023/04/01 05:21:18;;;;;;;0.82;0.82;;;9.80;99.90;;;;;;5112954;28;20308;-81
2023/04/01 05:23:47;;;;;;;0.80;0.80;;;9.80;99.90;;;;;;5112717;28;20196;-81
2023/04/01 05:26:16;;;;;;;0.70;0.70;;;9.80;99.90;;;;;;5112966;28;20212;-82
2023/04/01 05:28:44;;;;;;;1.38;1.00;;;9.80;99.90;;;;;;5112375;28;20251;-81
2023/04/01 05:31:14;;;;;;;1.27;0.85;;;9.80;99.90;;;;;;5112331;28;20223;-81
2023/04/01 05:33:42;;;;;;;0.90;0.80;;;9.90;99.90;;;;;;5112697;28;20246;-81
2023/04/01 05:36:14;;;;;;;0.68;0.68;;;9.90;99.90;;;;;;5112572;28;20222;-81
2023/04/01 05:38:46;;;;;;;0.60;0.60;;;9.90;99.90;;;;;;5115990;28;20199;-82
2023/04/01 05:41:15;;;;;;;1.65;1.02;;;9.90;99.90;;;;;;5116879;28;20231;-82
2023/04/01 05:43:44;;;;;;;0.98;0.80;;;9.90;99.90;;;;;;5116747;28;20203;-82
2023/04/01 05:46:14;;;;;;;0.52;0.52;;;9.90;99.90;;;;;;5116417;28;20212;-81
2023/04/01 05:48:42;;;;;;;0.93;0.82;;;9.90;99.90;;;;;;5116075;28;20291;-81
2023/04/01 05:51:13;;;;;;;0.50;0.50;;;9.90;99.90;;;;;;5116579;28;20306;-82
2023/04/01 05:53:42;;;;;;;1.00;0.90;;;9.90;99.90;;;;;;5116731;28;20215;-82
2023/04/01 05:56:10;;;;;;;1.35;1.00;;;10.00;99.90;;;;;;5116617;28;20253;-81
2023/04/01 05:58:40;;;;;;;1.45;0.82;;;10.00;99.90;;;;;;5115985;28;20203;-81
2023/04/01 06:01:10;;;;;;;0.65;0.65;;;10.10;99.90;;;;;;5116593;28;20327;-82
2023/04/01 06:03:45;;;;;;;1.52;0.80;;;10.20;99.90;;;;;;5116526;28;20218;-81
2023/04/01 06:06:16;;;;;;;1.00;0.90;;;10.30;99.90;;;;;;5116181;28;20200;-81
2023/04/01 06:08:47;;;;;;;0.50;0.50;;;10.40;99.90;;;;;;5115545;28;20222;-81
2023/04/01 06:11:24;;;;;;;0.77;0.73;;;10.50;99.90;;;;;;5116507;28;20276;-82
2023/04/01 06:14:11;;;;;;;1.15;1.05;;;10.50;99.90;;;;;;5116142;28;20272;-82
2023/04/01 06:16:52;;;;;;;1.00;1.00;;;10.60;99.90;;;;;;5116413;28;20210;-81
2023/04/01 06:19:31;;;;;;;1.45;0.88;;;10.70;99.90;;;;;;5116175;28;20200;-81
2023/04/01 06:22:31;;;;;;;0.70;0.70;;;10.80;99.90;;;;;;5116180;28;20223;-81
2023/04/01 06:25:19;;;;;;;0.68;0.68;;;10.80;99.90;;;;;;5115962;28;20203;-82
2023/04/01 06:28:04;;;;;;;1.25;1.15;;;10.90;99.90;;;;;;5115570;28;20247;-82
2023/04/01 06:30:42;;;;;;;1.42;1.10;;;10.90;99.90;;;;;;5115727;28;20231;-81
2023/04/01 06:33:37;;;;;;;0.80;0.80;;;11.00;99.90;;;;;;5115754;28;20294;-81
2023/04/01 06:36:37;;;;;;;1.30;1.20;;;10.90;99.90;;;;;;5115648;28;20199;-81
2023/04/01 06:39:28;;;;;;;0.90;0.90;;;11.00;99.90;;;;;;5115601;28;20211;-81
2023/04/01 06:42:10;;;;;;;0.90;0.90;;;11.00;99.90;;;;;;5115859;28;20251;-81
2023/04/01 06:44:50;;;;;;;2.58;1.02;;;11.10;99.90;;;;;;5115508;28;20263;-81
2023/04/01 06:47:33;;;;;;;1.33;1.02;;;11.10;99.90;;;;;;5115249;28;20216;-81
2023/04/01 06:50:08;;;;;;;1.10;1.00;;;11.20;99.90;;;;;;5115077;28;20204;-81
2023/04/01 06:52:47;;;;;;;2.92;1.23;;;11.20;99.90;;;;;;5115558;28;20223;-81
2023/04/01 06:55:28;;;;;;;0.90;0.90;;;11.20;99.90;;;;;;5115549;28;20266;-81
2023/04/01 06:57:59;;;;;;;2.35;1.02;;;11.20;99.90;;;;;;5115070;28;20264;-81
2023/04/01 07:00:32;;;;;;;0.73;0.73;;;11.20;99.90;;;;;;5115172;28;20200;-81
2023/04/01 07:03:11;;;;;;;0.98;0.88;;;11.10;99.90;;;;;;5114970;28;20263;-81
2023/04/01 07:05:40;;;;;;;1.23;1.10;;;11.20;99.90;;;;;;5115233;28;20291;-81
2023/04/01 07:08:14;;;;;;;0.93;0.90;;;11.20;99.90;;;;;;5115201;28;20204;-81
2023/04/01 07:10:48;;;;;;;1.08;1.02;;;11.30;99.90;;;;;;5115390;28;20247;-81
2023/04/01 07:13:22;;;;;;;3.22;1.17;;;11.40;99.90;;;;;;5115034;28;20203;-80
2023/04/01 07:15:59;;;;;;;1.38;1.17;;;11.40;99.90;;;;;;5115075;28;20213;-80
2023/04/01 07:18:35;;;;;;;4.15;1.17;;;11.40;99.90;;;;;;5114390;28;20234;-80
2023/04/01 07:21:11;;;;;;;1.00;0.73;;;11.50;99.90;;;;;;5115107;28;20224;-80
2023/04/01 07:23:46;;;;;;;0.93;0.93;;;11.60;99.90;;;;;;5115049;28;20270;-80
2023/04/01 07:26:20;;;;;;;0.93;0.93;;;11.60;99.90;;;;;;5114617;28;20287;-80
2023/04/01 07:28:51;;;;;;;0.60;0.60;;;11.60;99.90;;;;;;5114638;28;20423;-80
2023/04/01 07:31:41;;;;;;;0.63;0.63;;;11.60;99.90;;;;;;5114646;28;20238;-80
2023/04/01 07:34:15;;;;;;;0.88;0.70;;;11.50;99.90;;;;;;5114740;28;20253;-80
2023/04/01 07:36:47;;;;;;;0.85;0.85;;;11.50;99.90;;;;;;5114365;28;20287;-80
2023/04/01 07:39:31;;;;;;;1.00;1.00;;;11.60;99.90;;;;;;5114770;28;20248;-80
2023/04/01 07:42:09;;;;;;;0.95;0.82;;;11.60;99.90;;;;;;5114573;28;20234;-80
2023/04/01 07:44:48;;;;;;;0.93;0.93;;;11.70;99.90;;;;;;5114234;28;20246;-80
2023/04/01 07:47:45;;;;;;;1.42;1.05;;;11.80;99.90;;;;;;5114147;28;20210;-80
2023/04/01 07:50:22;;;;;;;0.77;0.68;;;11.80;99.90;;;;;;5099319;28;20204;-80
2023/04/01 07:53:03;;;;;;;0.88;0.88;;;11.90;99.90;;;;;;5114331;28;20311;-80
2023/04/01 07:55:41;;;;;;;1.05;1.05;;;12.00;99.90;;;;;;5113957;28;20250;-80
2023/04/01 07:58:18;;;;;;;1.20;1.10;;;12.10;99.90;;;;;;5113799;28;20315;-80
2023/04/01 08:00:54;;;;;;;6.43;1.40;;;12.10;99.90;;;;;;5113494;28;20284;-80
2023/04/01 08:03:39;;;;;;;1.85;1.27;;;12.20;99.90;;;;;;5113635;28;20252;-80
2023/04/01 08:06:17;;;;;;;1.75;1.42;;;12.20;99.90;;;;;;5113910;28;20252;-80
2023/04/01 08:08:55;;;;;;;1.83;1.17;;;12.30;99.90;;;;;;5113536;28;20303;-80
2023/04/01 08:11:41;;;;;;;0.63;0.63;;;12.40;99.90;;;;;;5113979;28;20314;-81
2023/04/01 08:14:17;;;;;;;1.20;1.10;;;12.50;99.90;;;;;;5113965;28;20203;-81
2023/04/01 08:16:52;;;;;;;1.25;1.17;;;12.70;99.90;;;;;;5113692;28;20234;-81
2023/04/01 08:19:39;;;;;;;0.80;0.80;;;12.90;99.90;;;;;;5113932;28;20206;-81
2023/04/01 08:22:15;;;;;;;0.80;0.80;;;13.20;99.90;;;;;;5113943;28;20239;-81
2023/04/01 08:24:46;;;;;;;1.77;1.35;;;13.40;99.90;;;;;;5113910;28;20203;-81
2023/04/01 08:27:22;;;;;;;1.23;1.10;;;13.60;99.90;;;;;;5113136;28;20216;-81
2023/04/01 08:29:56;;;;;;;1.63;1.40;;;13.60;99.90;;;;;;5114125;28;20206;-81
2023/04/01 08:32:29;;;;;;;0.80;0.80;;;13.60;99.90;;;;;;5113238;28;20267;-81
2023/04/01 08:35:08;;;;;;;0.90;0.90;;;13.50;99.90;;;;;;5113354;28;20226;-81
2023/04/01 08:37:41;;;;;;;1.10;1.10;;;13.40;99.90;;;;;;5113140;28;20203;-81
2023/04/01 08:40:31;;;;;;;1.10;1.02;;;13.30;99.90;;;;;;5113702;28;20291;-81
2023/04/01 08:43:10;;;;;;;1.85;0.93;;;13.40;99.90;;;;;;5113455;28;20257;-81
2023/04/01 08:46:07;;;;;;;0.73;0.73;;;13.50;99.90;;;;;;5113462;28;20207;-81
2023/04/01 08:49:02;;;;;;;1.02;1.00;;;13.30;99.90;;;;;;5113051;28;20211;-81
2023/04/01 08:52:06;;;;;;;1.05;1.00;;;13.40;99.90;;;;;;5113085;28;20334;-81
2023/04/01 08:54:47;;;;;;;1.00;1.00;;;14.10;99.90;;;;;;5113273;28;20278;-81
2023/04/01 08:57:31;;;;;;;1.20;1.10;;;14.70;99.90;;;;;;5112653;28;20308;-81
2023/04/01 09:00:17;;;;;;;1.65;0.95;;;14.50;99.90;;;;;;5113733;28;20204;-81
2023/04/01 09:02:59;;;;;;;1.08;0.88;;;14.40;99.90;;;;;;5113054;28;20254;-81
2023/04/01 09:05:48;;;;;;;0.82;0.82;;;14.30;99.90;;;;;;5113292;28;20215;-81
2023/04/01 09:08:32;;;;;;;1.27;1.17;;;14.40;99.90;;;;;;5112212;28;20212;-81
2023/04/01 09:11:12;;;;;;;1.02;0.95;;;14.50;99.90;;;;;;5113210;28;20254;-80
2023/04/01 09:14:08;;;;;;;0.77;0.77;;;14.30;99.90;;;;;;5112672;28;20303;-80
2023/04/01 09:17:08;;;;;;;1.05;0.80;;;14.30;99.90;;;;;;5112514;28;20247;-80
2023/04/01 09:19:55;;;;;;;0.63;0.35;;;14.10;99.90;;;;;;5112943;28;20208;-80
2023/04/01 09:22:38;;;;;;;0.70;0.70;;;14.00;99.90;;;;;;5113297;28;20223;-80
2023/04/01 09:25:35;;;;;;;0.65;0.65;;;14.30;99.90;;;;;;5113033;28;20303;-80
2023/04/01 09:28:11;;;;;;;0.82;0.70;;;14.30;99.90;;;;;;5112469;28;20227;-80
2023/04/01 09:31:09;;;;;;;1.08;1.08;;;14.10;99.90;;;;;;5112833;28;20219;-80
2023/04/01 09:34:22;;;;;;;1.17;0.70;;;13.90;99.90;;;;;;5113234;28;20208;-80
2023/04/01 09:37:06;;;;;;;0.75;0.68;;;13.80;99.90;;;;;;5112088;28;20230;-80
2023/04/01 09:39:39;;;;;;;0.57;0.57;;;13.50;99.90;;;;;;5112421;28;20200;-81
2023/04/01 09:42:42;;;;;;;0.63;0.63;;;13.30;99.90;;;;;;5113008;28;20227;-81
2023/04/01 09:45:22;;;;;;;0.80;0.80;;;13.20;99.90;;;;;;5050038;28;20232;-81
2023/04/01 09:48:01;;;;;;;0.98;0.68;;;13.60;99.90;;;;;;5049609;28;20347;-81
2023/04/01 09:50:43;;;;;;;0.57;0.57;;;14.70;99.90;;;;;;5088579;28;20280;-81
2023/04/01 09:53:24;;;;;;;0.85;0.85;;;15.20;99.90;;;;;;5111289;28;20257;-81
2023/04/01 09:56:16;;;;;;;0.90;0.90;;;15.10;99.90;;;;;;5111594;28;20322;-81
2023/04/01 09:59:16;;;;;;;1.20;1.10;;;14.60;99.90;;;;;;5112313;28;20208;-81
2023/04/01 10:02:02;;;;;;;0.57;0.57;;;14.40;99.90;;;;;;5112868;28;20231;-81
2023/04/01 10:05:07;;;;;;;0.60;0.60;;;15.10;99.90;;;;;;5112315;28;20199;-81
2023/04/01 10:08:06;;;;;;;1.75;1.08;;;15.50;99.90;;;;;;5037481;28;20206;-80
2023/04/01 10:11:08;;;;;;;0.70;0.70;;;16.30;99.90;;;;;;5112071;28;20236;-80
2023/04/01 10:14:30;;;;;;;1.50;0.63;;;16.60;99.90;;;;;;5112723;28;20214;-80
2023/04/01 10:17:47;;;;;;;0.70;0.70;;;17.00;99.40;;;;;;5087101;28;20230;-80
2023/04/01 10:21:03;;;;;;;0.88;0.88;;;17.10;96.90;;;;;;5112508;28;20228;-80
2023/04/01 10:23:48;;;;;;;1.02;0.90;;;16.40;96.40;;;;;;5076315;27;20298;-80
2023/04/01 10:26:54;;;;;;;2.15;0.75;;;15.40;98.50;;;;;;5116269;28;20204;-80
2023/04/01 10:30:00;;;;;;;0.80;0.80;;;15.20;99.20;;;;;;5092338;28;20223;-80
2023/04/01 10:32:53;;;;;;;0.40;0.40;;;15.00;99.60;;;;;;5115906;28;20223;-80
2023/04/01 10:36:10;;;;;;;0.88;0.88;;;14.60;99.90;;;;;;5116345;28;20225;-80
2023/04/01 10:39:08;;;;;;;1.10;1.10;;;14.40;99.90;;;;;;5079251;28;20203;-80
2023/04/01 10:42:17;;;;;;;1.52;1.05;;;14.00;99.90;;;;;;5080128;28;20266;-80
2023/04/01 10:45:10;;;;;;;0.90;0.90;;;13.90;99.90;;;;;;5115715;28;20203;-80
2023/04/01 10:48:16;;;;;;;0.73;0.73;;;13.80;99.90;;;;;;5115265;28;20207;-80
2023/04/01 10:51:23;;;;;;;1.10;0.98;;;13.80;99.90;;;;;;5115277;28;20313;-82
2023/04/01 10:54:19;;;;;;;0.73;0.73;;;13.80;99.90;;;;;;5115806;28;20230;-81
2023/04/01 10:56:56;;;;;;;1.35;1.25;;;13.80;99.90;;;;;;5114632;28;20231;-81
2023/04/01 11:00:03;;;;;;;0.95;0.82;;;13.90;99.90;;;;;;5115681;28;20211;-81
2023/04/01 11:03:24;;;;;;;1.10;1.00;;;14.00;99.90;;;;;;5115134;28;20306;-81
2023/04/01 11:06:15;;;;;;;2.50;1.10;;;14.20;99.90;;;;;;5115513;28;20211;-81
2023/04/01 11:09:26;;;;;;;0.90;0.90;;;14.50;99.90;;;;;;5114499;28;20208;-82
2023/04/01 11:12:39;;;;;;;1.02;0.93;;;14.80;99.90;;;;;;5115326;28;20215;-82
2023/04/01 11:15:35;;;;;;;0.60;0.60;;;14.90;99.90;;;;;;5115058;28;20200;-81
2023/04/01 11:18:50;;;;;;;0.70;0.70;;;14.70;99.90;;;;;;5114623;28;20203;-81
2023/04/01 11:21:48;;;;;;;1.77;1.20;;;14.40;99.90;;;;;;5114981;28;20222;-82
2023/04/01 11:24:31;;;;;;;0.60;0.60;;;14.40;99.90;;;;;;5114789;28;20223;-82
2023/04/01 11:27:13;;;;;;;0.60;0.60;;;14.50;99.90;;;;;;5114504;28;20222;-81
2023/04/01 11:30:17;;;;;;;0.73;0.70;;;14.50;99.90;;;;;;5114740;28;20203;-81
2023/04/01 11:32:54;;;;;;;0.43;0.43;;;14.90;99.90;;;;;;5071472;28;20290;-82
2023/04/01 11:36:07;;;;;;;0.60;0.60;;;15.00;99.40;;;;;;5114713;28;20219;-82
2023/04/01 11:39:09;;;;;;;0.82;0.82;;;15.20;99.40;;;;;;5113694;28;20267;-82
2023/04/01 11:41:45;;;;;;;1.35;1.05;;;15.30;99.10;;;;;;5103870;28;20250;-82
2023/04/01 11:44:18;;;;;;;1.70;1.23;;;15.50;98.40;;;;;;5114675;28;20299;-81
2023/04/01 11:47:01;;;;;;;1.15;1.08;;;15.40;98.60;;;;;;5114144;28;20281;-81
2023/04/01 11:49:47;;;;;;;1.13;1.10;;;15.40;98.60;;;;;;5114333;28;20231;-82
2023/04/01 11:52:52;;;;;;;0.70;0.68;;;15.40;98.40;;;;;;5114537;28;20287;-81
2023/04/01 11:55:29;;;;;;;0.98;0.77;;;15.10;97.90;;;;;;5082503;28;20220;-81
2023/04/01 11:58:25;;;;;;;2.08;0.73;;;15.20;97.80;;;;;;5113767;28;20266;-81
2023/04/01 12:01:14;;;;;;;0.60;0.60;;;15.40;98.40;;;;;;5114674;28;20235;-80
2023/04/01 12:04:01;;;;;;;0.52;0.52;;;15.70;97.80;;;;;;5083531;28;20218;-80
2023/04/01 12:06:42;;;;;;;0.65;0.47;;;16.10;97.00;;;;;;5114186;28;20203;-80
2023/04/01 12:09:19;;;;;;;0.47;0.47;;;16.30;96.40;;;;;;5113958;28;20298;-80
2023/04/01 12:12:00;;;;;;;0.28;0.28;;;16.20;96.80;;;;;;5114189;28;20331;-80
2023/04/01 12:14:36;;;;;;;1.15;0.68;;;15.90;96.70;;;;;;5114236;28;20290;-80
2023/04/01 12:17:15;;;;;;;0.73;0.70;;;15.80;96.60;;;;;;5113460;28;20223;-80
2023/04/01 12:19:53;;;;;;;0.60;0.60;;;15.70;96.90;;;;;;5113984;28;20272;-81
2023/04/01 12:22:40;;;;;;;0.43;0.43;;;15.50;97.30;;;;;;5113937;28;20227;-80
2023/04/01 12:25:23;;;;;;;0.50;0.50;;;15.30;97.00;;;;;;5113997;28;20299;-81
2023/04/01 12:28:04;;;;;;;0.90;0.52;;;15.30;97.00;;;;;;5113455;28;20248;-81
2023/04/01 12:30:51;;;;;;;0.57;0.55;;;15.30;96.90;;;;;;5113462;28;20223;-81
2023/04/01 12:33:52;;;;;;;0.60;0.60;;;15.10;97.00;;;;;;5113213;28;20275;-81
2023/04/01 12:36:33;;;;;;;0.40;0.40;;;15.00;97.30;;;;;;5056496;28;20274;-81
2023/04/01 12:39:28;;;;;;;0.50;0.50;;;15.00;97.10;;;;;;5112987;28;20199;-81
2023/04/01 12:42:08;;;;;;;1.38;0.93;;;15.30;97.20;;;;;;5113358;28;20223;-81
2023/04/01 12:44:56;;;;;;;0.75;0.75;;;15.30;97.00;;;;;;5113364;28;20211;-81
2023/04/01 12:47:40;;;;;;;0.52;0.52;;;15.20;96.90;;;;;;5112373;28;20210;-81
2023/04/01 12:50:34;;;;;;;0.32;0.32;;;14.90;98.40;;;;;;5112969;28;20222;-81
2023/04/01 12:53:24;;;;;;;0.82;0.32;;;14.50;99.90;;;;;;5113282;28;20227;-81
2023/04/01 12:55:57;;;;;;;0.60;0.60;;;14.30;99.90;;;;;;5111151;28;20302;-81
2023/04/01 12:58:56;;;;;;;0.68;0.68;;;14.60;99.90;;;;;;5112472;28;20277;-81
2023/04/01 13:01:46;;;;;;;0.57;0.57;;;15.20;99.40;;;;;;5112846;28;20250;-81
2023/04/01 13:04:36;;;;;;;0.77;0.77;;;15.70;98.70;;;;;;5113353;28;20267;-81
2023/04/01 13:07:18;;;;;;;0.50;0.50;;;16.00;97.30;;;;;;5112625;28;20524;-80
2023/04/01 13:09:53;;;;;;;0.68;0.68;;;16.30;95.90;;;;;;5112682;28;20305;-81
2023/04/01 13:12:39;;;;;;;0.50;0.50;;;16.70;95.70;;;;;;5112988;28;20255;-81
2023/04/01 13:15:21;;;;;;;1.25;0.65;;;17.30;94.20;;;;;;5113139;28;20267;-81
2023/04/01 13:17:59;;;;;;;0.80;0.80;;;17.40;93.50;;;;;;5112449;28;20291;-81
2023/04/01 13:20:41;;;;;;;0.73;0.73;;;17.40;93.40;;;;;;5113242;28;20203;-81
2023/04/01 13:23:21;;;;;;;1.20;1.08;;;17.10;93.30;;;;;;5113173;28;20298;-81
2023/04/01 13:25:55;;;;;;;1.15;0.82;;;16.80;93.50;;;;;;5112939;28;20299;-81
2023/04/01 13:28:45;;;;;;;0.70;0.70;;;16.70;93.00;;;;;;5112235;28;20313;-81
2023/04/01 13:31:30;;;;;;;14.50;0.80;;;16.40;92.90;;;;;;5112904;28;20314;-81
2023/04/01 13:34:14;;;;;;;0.45;0.45;;;16.20;93.20;;;;;;5112638;28;20231;-81
2023/04/01 13:36:54;;;;;;;0.82;0.82;;;16.20;93.60;;;;;;5112199;28;20231;-81
2023/04/01 13:39:37;;;;;;;0.75;0.75;;;16.00;93.50;;;;;;5112909;28;20210;-81
2023/04/01 13:42:17;;;;;;;0.55;0.45;;;16.10;93.50;;;;;;5112866;28;20322;-81
2023/04/01 13:44:52;;;;;;;0.90;0.90;;;16.60;92.60;;;;;;5112908;28;20264;-81
2023/04/01 13:47:58;;;;;;;0.52;0.52;;;17.10;92.50;;;;;;5112161;28;20203;-81
2023/04/01 13:51:02;;;;;;;0.90;0.70;;;17.60;91.70;;;;;;5112804;28;20207;-81